Tiger — 9HA2271 — position and weather

sailwx.info

Track history (hours):
 
Tides and Currents Weather Stations Pressure Air Temp Water Temp Dewpoint Dewpoint Depression Visibility Wind Speed Wind Dir Waves Ship Positions

Tiger

Last reported at 2015-Mar-02 08:33 UTC. Time now 2015-Mar-04 22:48 UTC.
Position N 35°03' E 139°42'.

Length 232 m; draft 8.7 m.

Type: Cargo ship. MMSI: 248223000.

Date/timePositionNaut miles runAvg speedWind from/ knotsBaromVisibWave heightAir tempDewpointWater temp
2015-Mar-02 08:33N 35°03' E 139°42'1010.0
2015-Mar-02 07:34N 35°13' E 139°46'1312.7
2015-Mar-02 06:33N 35°25' E 139°42'3 2.8
2015-Mar-02 05:32N 35°28' E 139°41'0 0.0
2015-Mar-02 04:32N 35°28' E 139°41'0 0.0
2015-Mar-02 03:32N 35°28' E 139°41'0 0.0
2015-Mar-02 02:32N 35°28' E 139°41'0 0.0
2015-Mar-02 01:32N 35°28' E 139°41'0 0.0
2015-Mar-02 00:32N 35°28' E 139°41'0 0.0
2015-Mar-01 23:32N 35°28' E 139°41'1 1.0
2015-Mar-01 22:33N 35°28' E 139°43'5 4.9
2015-Mar-01 21:33N 35°24' E 139°46'1111.3
2015-Mar-01 20:33N 35°12' E 139°47'10 9.5
2015-Mar-01 19:33N 35°03' E 139°44'  
Track history (hours):
 
Tides and Currents Weather Stations Pressure Air Temp Water Temp Dewpoint Dewpoint Depression Visibility Wind Speed Wind Dir Waves Ship Positions

Tiger

Last reported at 2015-Mar-02 08:33 UTC. Time now 2015-Mar-04 22:48 UTC.
Position N 35°03' E 139°42'.

Length 232 m; draft 8.7 m.

Type: Cargo ship. MMSI: 248223000.

Date/timePositionNaut miles runAvg speedWind from/ knotsBaromVisibWave heightAir tempDewpointWater temp
2015-Mar-02 08:33N 35°03' E 139°42'1010.0
2015-Mar-02 07:34N 35°13' E 139°46'1312.7
2015-Mar-02 06:33N 35°25' E 139°42'3 2.8
2015-Mar-02 05:32N 35°28' E 139°41'0 0.0
2015-Mar-02 04:32N 35°28' E 139°41'0 0.0
2015-Mar-02 03:32N 35°28' E 139°41'0 0.0
2015-Mar-02 02:32N 35°28' E 139°41'0 0.0
2015-Mar-02 01:32N 35°28' E 139°41'0 0.0
2015-Mar-02 00:32N 35°28' E 139°41'0 0.0
2015-Mar-01 23:32N 35°28' E 139°41'1 1.0
2015-Mar-01 22:33N 35°28' E 139°43'5 4.9
2015-Mar-01 21:33N 35°24' E 139°46'1111.3
2015-Mar-01 20:33N 35°12' E 139°47'10 9.5
2015-Mar-01 19:33N 35°03' E 139°44'  

Dump ship's entire track history